Terminal Aerodrome Forecast
Issued by NWS

Home | Current Version | Previous Version | Text Only | Print | Product List | Glossary On
Versions: 1 2 3 4 5 6 7 8 9 10 11 12 13 14 15 16 17 18 19
000
FTUS43 KICT 310500
TAFRSL
TAF
KRSL 310520Z 3106/0106 17011KT P6SM SCT200
     FM310900 18012KT P6SM VCTS SCT080CB BKN120
     FM311500 19025G34KT P6SM FEW090 SCT250
     FM010000 18013KT P6SM VCTS SCT070CB BKN100=

USA.gov is the U.S. government's official web portal to all federal, state and local government web resources and services.